createdAt,value
2023-04-27T00:01:56.662Z,5.90
2023-04-27T00:06:59.449Z,4.24
2023-04-27T00:12:02.319Z,3.82
2023-04-27T00:17:05.077Z,7.59
2023-04-27T00:22:08.961Z,6.85
2023-04-27T00:27:13.722Z,4.78
2023-04-27T00:32:16.602Z,3.78
2023-04-27T00:37:19.711Z,7.01
2023-04-27T00:42:25.088Z,7.23
2023-04-27T00:47:30.551Z,4.98
2023-04-27T00:52:33.592Z,3.73
2023-04-27T00:57:36.366Z,3.80
2023-04-27T01:02:40.353Z,7.83
2023-04-27T01:07:43.188Z,7.49
2023-04-27T01:12:45.949Z,4.96
2023-04-27T01:17:48.789Z,3.73
2023-04-27T01:22:51.660Z,6.66
2023-04-27T01:27:54.893Z,7.63
2023-04-27T01:32:57.613Z,5.14
2023-04-27T01:38:00.558Z,3.74
2023-04-27T01:43:03.575Z,5.74
2023-04-27T01:48:06.699Z,7.66
2023-04-27T01:53:09.799Z,5.15
2023-04-27T01:58:12.522Z,3.87
2023-04-27T02:03:15.386Z,7.13
2023-04-27T02:08:18.396Z,7.04
2023-04-27T02:13:21.269Z,4.83
2023-04-27T02:18:25.052Z,3.90
2023-04-27T02:23:27.830Z,7.33
2023-04-27T02:28:31.135Z,6.89
2023-04-27T02:33:34.504Z,4.77
2023-04-27T02:38:37.243Z,4.65
2023-04-27T02:43:40.084Z,7.97
2023-04-27T02:48:42.929Z,6.12
2023-04-27T02:53:45.796Z,4.39
2023-04-27T02:58:49.160Z,5.28
2023-04-27T03:03:52.139Z,7.87
2023-04-27T03:08:55.136Z,5.50
2023-04-27T03:13:57.894Z,4.12
2023-04-27T03:19:00.974Z,7.37
2023-04-27T03:24:03.969Z,7.12
2023-04-27T03:29:06.744Z,4.82
2023-04-27T03:34:09.614Z,5.52
2023-04-27T03:39:12.541Z,8.11
2023-04-27T03:44:15.908Z,5.93
2023-04-27T03:49:18.661Z,4.50
2023-04-27T03:54:21.677Z,3.69
2023-04-27T03:59:24.470Z,6.49
2023-04-27T04:04:27.380Z,8.31
2023-04-27T04:09:30.737Z,6.05
2023-04-27T04:14:33.509Z,4.78
2023-04-27T04:19:36.390Z,6.02
2023-04-27T04:24:40.270Z,8.96
2023-04-27T04:29:43.086Z,6.93
2023-04-27T04:34:51.991Z,5.39
2023-04-27T04:39:54.738Z,4.72
2023-04-27T04:44:58.975Z,8.10
2023-04-27T04:50:02.170Z,9.44
2023-04-27T04:55:05.220Z,7.15
2023-04-27T05:00:14.883Z,6.15
2023-04-27T05:05:17.661Z,9.19
2023-04-27T05:10:20.460Z,8.46
2023-04-27T05:15:23.358Z,6.64
2023-04-27T05:20:26.107Z,7.90
2023-04-27T05:25:33.059Z,9.63
2023-04-27T05:30:36.881Z,7.58
2023-04-27T05:35:39.657Z,7.56
2023-04-27T05:40:42.442Z,8.80
2023-04-27T05:45:45.216Z,7.19
2023-04-27T05:50:48.089Z,7.42
2023-04-27T05:55:58.130Z,10.37
2023-04-27T06:01:01.758Z,8.64
2023-04-27T06:06:04.927Z,7.41
2023-04-27T06:11:07.684Z,8.60
2023-04-27T06:16:10.734Z,11.17
2023-04-27T06:21:13.548Z,9.50
2023-04-27T06:26:17.911Z,8.49
2023-04-27T06:31:20.858Z,10.87
2023-04-27T06:36:26.930Z,10.50
2023-04-27T06:41:29.765Z,9.08
2023-04-27T06:46:32.724Z,9.18
2023-04-27T06:51:35.889Z,11.51
2023-04-27T06:56:38.725Z,10.36
2023-04-27T07:01:41.591Z,9.53
2023-04-27T07:06:44.374Z,8.98
2023-04-27T07:11:47.254Z,8.73
2023-04-27T07:16:50.037Z,8.61
2023-04-27T07:21:52.773Z,8.50
2023-04-27T07:26:57.727Z,8.45
2023-04-27T07:32:00.495Z,8.48
2023-04-27T07:37:03.360Z,8.67
2023-04-27T07:42:06.305Z,8.95
2023-04-27T07:47:09.238Z,9.01
2023-04-27T07:52:12.673Z,8.90
2023-04-27T07:57:15.692Z,8.85
2023-04-27T08:02:20.379Z,8.90
2023-04-27T08:07:24.086Z,9.38
2023-04-27T08:12:27.087Z,9.79
2023-04-27T08:17:29.923Z,9.95
2023-04-27T08:22:32.881Z,9.88
2023-04-27T08:27:42.917Z,9.62
2023-04-27T08:32:45.895Z,9.43
2023-04-27T08:37:49.072Z,9.20
2023-04-27T08:42:56.959Z,9.00
2023-04-27T08:48:00.117Z,8.75
2023-04-27T08:53:03.464Z,8.69
2023-04-27T08:58:10.996Z,9.07
2023-04-27T09:03:29.797Z,9.55
2023-04-27T09:08:45.686Z,10.16
2023-04-27T09:13:51.060Z,10.69
2023-04-27T09:18:55.755Z,10.69
2023-04-27T09:24:14.837Z,10.42
2023-04-27T09:29:18.132Z,10.18
2023-04-27T09:34:21.093Z,10.17
2023-04-27T09:39:23.954Z,10.44
2023-04-27T09:44:28.735Z,10.95
2023-04-27T09:49:34.598Z,11.17
2023-04-27T09:54:37.657Z,10.99
2023-04-27T09:59:46.317Z,10.89
2023-04-27T10:05:13.958Z,10.90
2023-04-27T10:10:18.695Z,10.88
2023-04-27T10:15:29.916Z,10.71
2023-04-27T10:20:37.540Z,10.63
2023-04-27T10:25:41.947Z,10.41
2023-04-27T10:30:48.517Z,10.18
2023-04-27T10:35:58.978Z,10.00
2023-04-27T10:41:05.260Z,10.14
2023-04-27T10:46:10.787Z,10.72
2023-04-27T10:51:18.032Z,11.08
2023-04-27T10:56:21.072Z,11.28
2023-04-27T11:01:27.070Z,11.29
2023-04-27T11:06:32.545Z,11.07
2023-04-27T11:11:35.403Z,10.80
2023-04-27T11:16:46.295Z,10.56
2023-04-27T11:21:49.353Z,10.39
2023-04-27T11:26:53.348Z,10.24
2023-04-27T11:31:56.300Z,10.23
2023-04-27T11:42:18.791Z,10.59
2023-04-27T11:47:22.962Z,11.11
2023-04-27T11:52:33.524Z,11.60
2023-04-27T11:57:36.798Z,11.59
2023-04-27T12:02:39.847Z,11.86
2023-04-27T12:07:43.547Z,11.89
2023-04-27T12:12:47.154Z,11.71
2023-04-27T12:17:50.994Z,11.55
2023-04-27T12:22:54.509Z,11.44
2023-04-27T12:27:57.829Z,11.87
2023-04-27T12:33:00.951Z,12.29
2023-04-27T12:38:03.775Z,12.16
2023-04-27T12:43:08.529Z,11.80
2023-04-27T12:48:11.914Z,11.71
2023-04-27T12:53:14.760Z,11.92
2023-04-27T12:58:17.579Z,12.12
2023-04-27T13:03:20.618Z,11.82
2023-04-27T13:08:23.699Z,11.28
2023-04-27T13:13:26.998Z,10.73
2023-04-27T13:18:32.865Z,10.13
2023-04-27T13:23:37.559Z,9.56
2023-04-27T13:28:41.128Z,9.08
2023-04-27T13:33:44.595Z,8.75
2023-04-27T13:38:48.262Z,8.80
2023-04-27T13:43:51.136Z,9.10
2023-04-27T13:48:53.972Z,9.60
2023-04-27T13:53:56.761Z,10.19
2023-04-27T13:59:01.347Z,10.66
2023-04-27T14:04:04.317Z,11.01
2023-04-27T14:09:07.298Z,10.98
2023-04-27T14:14:09.992Z,10.60
2023-04-27T14:19:16.013Z,10.25
2023-04-27T14:24:19.871Z,9.93
2023-04-27T14:29:23.705Z,9.61
2023-04-27T14:34:26.865Z,9.26
2023-04-27T14:39:29.536Z,8.87
2023-04-27T14:44:32.276Z,8.53
2023-04-27T14:49:35.008Z,8.26
2023-04-27T14:54:38.807Z,8.16
2023-04-27T14:59:41.594Z,8.15
2023-04-27T15:04:44.405Z,8.13
2023-04-27T15:09:47.309Z,8.16
2023-04-27T15:14:51.800Z,8.45
2023-04-27T15:19:54.692Z,9.52
2023-04-27T15:24:57.525Z,10.54
2023-04-27T15:30:00.467Z,11.15
2023-04-27T15:35:04.739Z,11.84
2023-04-27T15:40:08.805Z,12.95
2023-04-27T15:45:11.690Z,14.16
2023-04-27T15:50:14.501Z,14.34
2023-04-27T15:55:17.180Z,13.55
2023-04-27T16:00:22.340Z,12.67
2023-04-27T16:05:25.460Z,11.62
2023-04-27T16:10:28.399Z,10.69
2023-04-27T16:15:31.183Z,10.16
2023-04-27T16:20:36.419Z,9.82
2023-04-27T16:25:39.457Z,9.62
2023-04-27T16:30:42.195Z,9.48
2023-04-27T16:35:44.981Z,10.33
2023-04-27T16:40:47.836Z,12.39
2023-04-27T16:45:51.095Z,14.58
2023-04-27T16:50:55.216Z,15.94
2023-04-27T16:56:02.178Z,16.73
2023-04-27T17:01:05.095Z,17.32
2023-04-27T17:06:07.891Z,17.23
2023-04-27T17:11:11.793Z,16.90
2023-04-27T17:16:16.136Z,16.67
2023-04-27T17:21:19.548Z,16.46
2023-04-27T17:26:22.759Z,15.92
2023-04-27T17:31:28.508Z,14.46
2023-04-27T17:36:31.633Z,12.79
2023-04-27T17:41:36.769Z,11.57
2023-04-27T17:46:46.531Z,10.56
2023-04-27T17:51:49.413Z,9.63
2023-04-27T17:56:52.123Z,8.88
2023-04-27T18:01:54.968Z,8.30
2023-04-27T18:06:57.772Z,7.78
2023-04-27T18:12:00.776Z,7.33
2023-04-27T18:17:03.601Z,6.94
2023-04-27T18:22:06.333Z,6.60
2023-04-27T18:27:09.170Z,6.31
2023-04-27T18:32:12.219Z,6.08
2023-04-27T18:37:15.101Z,5.91
2023-04-27T18:42:20.806Z,5.76
2023-04-27T18:47:23.581Z,5.59
2023-04-27T18:52:26.560Z,5.36
2023-04-27T18:57:33.150Z,5.10
2023-04-27T19:02:35.974Z,4.83
2023-04-27T19:07:38.830Z,4.58
2023-04-27T19:12:41.685Z,4.35
2023-04-27T19:17:44.566Z,4.11
2023-04-27T19:22:47.851Z,3.87
2023-04-27T19:27:50.792Z,5.44
2023-04-27T19:32:53.547Z,9.70
2023-04-27T19:37:56.449Z,8.88
2023-04-27T19:42:59.329Z,6.81
2023-04-27T19:48:02.190Z,5.67
2023-04-27T19:53:04.995Z,4.83
2023-04-27T19:58:07.885Z,5.94
2023-04-27T20:03:12.701Z,9.39
2023-04-27T20:08:15.811Z,7.44
2023-04-27T20:13:18.570Z,5.73
2023-04-27T20:18:21.328Z,4.70
2023-04-27T20:23:24.181Z,5.88
2023-04-27T20:28:28.049Z,9.11
2023-04-27T20:33:32.823Z,7.01
2023-04-27T20:38:35.921Z,5.28
2023-04-27T20:43:40.302Z,4.41
2023-04-27T20:48:43.114Z,7.76
2023-04-27T20:53:45.931Z,8.27
2023-04-27T20:58:48.674Z,5.90
2023-04-27T21:03:52.416Z,4.53
2023-04-27T21:08:55.705Z,6.63
2023-04-27T21:13:58.536Z,8.39
2023-04-27T21:19:01.336Z,5.95
2023-04-27T21:24:08.199Z,4.51
2023-04-27T21:29:11.411Z,5.63
2023-04-27T21:34:14.436Z,8.65
2023-04-27T21:39:17.348Z,6.36
2023-04-27T21:44:20.101Z,4.54
2023-04-27T21:49:22.928Z,5.54
2023-04-27T21:54:25.803Z,8.39
2023-04-27T21:59:28.515Z,6.10
2023-04-27T22:04:31.374Z,4.39
2023-04-27T22:09:35.744Z,3.49
2023-04-27T22:14:38.551Z,6.84
2023-04-27T22:19:41.641Z,7.94
2023-04-27T22:24:44.447Z,5.35
2023-04-27T22:29:47.212Z,3.81
2023-04-27T22:34:50.449Z,4.85
2023-04-27T22:39:53.100Z,7.96
2023-04-27T22:44:55.829Z,5.71
2023-04-27T22:49:59.231Z,3.84
2023-04-27T22:55:02.360Z,2.74
2023-04-27T23:00:06.202Z,2.23
2023-04-27T23:05:11.043Z,6.07
2023-04-27T23:10:15.258Z,6.90
2023-04-27T23:15:18.671Z,4.31
2023-04-27T23:20:28.018Z,2.88
2023-04-27T23:25:33.235Z,3.90
2023-04-27T23:30:36.594Z,7.30
2023-04-27T23:35:39.790Z,5.14
2023-04-27T23:40:42.616Z,3.28
2023-04-27T23:45:52.770Z,4.21
2023-04-27T23:51:01.012Z,7.05
2023-04-27T23:56:03.956Z,4.58
